• Join FlightAware (Why Join?)
  • Login
  • US Flag 
09:03AM EST


 

Airport Tracker/Info


-or-


 

Live Flight TrackerFlight Track Log ✈ CES2232 ✈ 30-Jul-2013 ✈ ZUJZ / JZH - ZLXY / XIY

Flight Track Log - Related Links

Times and Time Zones

All times are in EDT time to prevent confusion due to time zone crossing. See the CES2232 flight status page for this flight to view local times or setup timezone preferences in your user account.

Time Position Orientation Groundspeed Altitude Reporting Facility
EDT Latitude Longitude Course Direction KTS MPH feet Rate Location/Type
08:35AM 33.1800 104.6471 68° East  Level Estimated
08:36AM 33.2090 104.7351 68° East  Level Estimated
08:37AM 33.2379 104.8231 69° East  Level Estimated
08:38AM 33.2668 104.9112 69° East  Level Estimated
08:39AM 33.2956 104.9994 69° East  Level Estimated
08:40AM 33.3243 105.0876 69° East  Level Estimated
08:41AM 33.3530 105.1759 69° East  Level Estimated
08:42AM 33.3816 105.2642 69° East  Level Estimated
08:43AM 33.4102 105.3526 69° East  Level Estimated
08:44AM 33.4387 105.4411 69° East  Level Estimated
08:45AM 33.4671 105.5296 69° East  Level Estimated
08:46AM 33.4955 105.6182 69° East  Level Estimated
08:47AM 33.5238 105.7068 69° East  Level Estimated
08:48AM 33.5521 105.7955 69° East  Level Estimated
08:49AM 33.5802 105.8843 69° East  Level Estimated
08:50AM 33.6084 105.9731 69° East  Level Estimated
08:51AM 33.6364 106.0619 69° East  Level Estimated
08:52AM 33.6644 106.1508 69° East  Level Estimated
08:53AM 33.6923 106.2398 69° East  Level Estimated
08:54AM 33.7202 106.3289 69° East  Level Estimated
08:55AM 33.7480 106.4180 69° East  Level Estimated
08:56AM 33.7757 106.5071 69° East  Level Estimated
08:57AM 33.8034 106.5963 70° East  Level Estimated
08:58AM 33.8310 106.6856 70° East  Level Estimated
08:59AM 33.8586 106.7749 70° East  Level Estimated
09:00AM 33.8860 106.8643 70° East  Level Estimated
09:01AM 33.9134 106.9537 70° East  Level Estimated
09:02AM 33.9408 107.0432 70° East  Level Estimated
09:03AM 33.9681 107.1328 70° East  Level Estimated
09:04AM 33.9953 107.2224 70° East  Level Estimated
09:05AM 34.0224 107.3121 70° East  Level Estimated
09:06AM 34.0495 107.4018 70° East  Level Estimated
09:07AM 34.0765 107.4916 70° East  Level Estimated
09:08AM 34.1035 107.5814 70° East  Level Estimated
09:09AM 34.1304 107.6713 70° East  Level Estimated
09:10AM 34.1572 107.7613 70° East  Level Estimated
09:11AM 34.1840 107.8513 70° East  Level Estimated
09:12AM 34.2107 107.9414 70° East  Level Estimated
09:13AM 34.2373 108.0315 70° East  Level Estimated
09:14AM 34.2639 108.1217 70° East  Level Estimated
09:15AM 34.2904 108.2119 70° East  Level Estimated
09:16AM 34.3168 108.3022 70° East  Level Estimated
09:17AM 34.3432 108.3926 71° East  Level Estimated
09:18AM 34.3695 108.4830 71° East  Level Estimated
09:19AM 34.3957 108.5735 71° East  Level Estimated
09:20AM 34.4219 108.6640 71° East  Level Estimated
09:21AM 34.4471 108.7516 71° East  Level Estimated
09:22AM 34.4471 108.7516 121° Southeast  Level Estimated
09:23AM 34.4471 108.7516 121° Southeast  Level Estimated
09:24AM 34.4471 108.7516 121° Southeast  Level Estimated
09:25AM 34.4471 108.7516 121° Southeast  Level Estimated
09:26AM 34.4471 108.7516 121° Southeast  Level Estimated
09:27AM 34.4471 108.7516 121° Southeast  Level Estimated
09:28AM 34.4471 108.7516 121° Southeast  Level Estimated
09:29AM 34.4471 108.7516 121° Southeast  Level Estimated
09:30AM 34.4471 108.7516 121° Southeast  Level Estimated
09:31AM 34.4471 108.7516 121° Southeast  Level Estimated
09:32AM 34.4471 108.7516 121° Southeast  Level Estimated
09:33AM 34.4471 108.7516 121° Southeast  Level Estimated
09:34AM 34.4471 108.7516 121° Southeast  Level Estimated
09:35AM 34.4471 108.7516 121° Southeast  Level Estimated
09:36AM 34.4471 108.7516 121° Southeast  Level Estimated